createdAt,value
2019-04-10T00:01:58.088Z,8.35
2019-04-10T00:07:10.367Z,8.55
2019-04-10T00:12:05.311Z,9.08
2019-04-10T00:17:07.152Z,8.05
2019-04-10T00:22:09.688Z,7.97
2019-04-10T00:27:12.459Z,7.22
2019-04-10T00:32:14.460Z,9.15
2019-04-10T00:37:23.955Z,7.65
2019-04-10T00:42:20.967Z,8.40
2019-04-10T00:47:23.279Z,9.33
2019-04-10T00:52:25.233Z,7.55
2019-04-10T00:57:27.524Z,7.67
2019-04-10T01:02:29.193Z,7.47
2019-04-10T01:07:36.662Z,7.80
2019-04-10T01:12:34.318Z,8.23
2019-04-10T01:17:36.040Z,7.53
2019-04-10T01:22:37.671Z,6.78
2019-04-10T01:27:41.000Z,6.60
2019-04-10T01:32:43.872Z,7.62
2019-04-10T01:37:51.823Z,6.80
2019-04-10T01:43:02.394Z,7.35
2019-04-10T01:47:53.297Z,7.35
2019-04-10T01:52:55.541Z,7.85
2019-04-10T01:57:58.858Z,7.42
2019-04-10T02:03:01.389Z,7.12
2019-04-10T02:08:09.003Z,7.87
2019-04-10T02:13:07.396Z,7.62
2019-04-10T02:18:09.057Z,6.10
2019-04-10T02:23:10.689Z,6.78
2019-04-10T02:28:13.076Z,6.78
2019-04-10T02:33:15.896Z,7.08
2019-04-10T02:38:35.790Z,7.53
2019-04-10T02:43:21.282Z,6.78
2019-04-10T02:48:23.497Z,7.33
2019-04-10T02:53:25.648Z,7.15
2019-04-10T02:58:27.590Z,6.65
2019-04-10T03:03:29.986Z,6.60
2019-04-10T03:08:44.782Z,6.42
2019-04-10T03:13:35.886Z,6.10
2019-04-10T03:18:37.648Z,6.30
2019-04-10T03:23:40.344Z,7.60
2019-04-10T03:28:43.004Z,6.87
2019-04-10T03:33:50.510Z,7.12
2019-04-10T03:38:58.601Z,7.10
2019-04-10T03:43:56.441Z,6.70
2019-04-10T03:48:58.161Z,8.13
2019-04-10T03:53:59.802Z,8.63
2019-04-10T03:59:02.240Z,10.72
2019-04-10T04:04:04.955Z,14.15
2019-04-10T04:09:10.911Z,24.50
2019-04-10T04:14:10.353Z,30.92
2019-04-10T04:19:12.184Z,25.12
2019-04-10T04:24:13.831Z,19.67
2019-04-10T04:29:16.426Z,23.80
2019-04-10T04:34:18.644Z,29.80
2019-04-10T04:39:26.412Z,27.32
2019-04-10T04:44:24.200Z,29.00
2019-04-10T04:49:26.409Z,27.02
2019-04-10T04:54:28.888Z,25.52
2019-04-10T04:59:30.725Z,31.65
2019-04-10T05:04:33.666Z,30.92
2019-04-10T05:09:38.763Z,25.52
2019-04-10T05:14:39.907Z,27.45
2019-04-10T05:19:42.906Z,20.77
2019-04-10T05:24:44.694Z,25.50
2019-04-10T05:29:47.141Z,27.00
2019-04-10T05:34:48.842Z,24.18
2019-04-10T05:39:52.181Z,18.70
2019-04-10T05:44:54.448Z,19.17
2019-04-10T05:49:56.158Z,26.15
2019-04-10T05:54:57.862Z,22.20
2019-04-10T06:00:00.495Z,18.98
2019-04-10T06:05:04.244Z,21.42
2019-04-10T06:10:09.027Z,22.55
2019-04-10T06:15:10.737Z,24.32
2019-04-10T06:20:14.156Z,20.97
2019-04-10T06:25:18.832Z,19.82
2019-04-10T06:30:20.601Z,19.10
2019-04-10T06:35:22.217Z,18.25
2019-04-10T06:40:25.824Z,20.75
2019-04-10T06:45:28.003Z,16.23
2019-04-10T06:50:30.486Z,16.48
2019-04-10T06:55:33.255Z,18.92
2019-04-10T07:00:35.220Z,15.15
2019-04-10T07:05:46.899Z,16.23
2019-04-10T07:10:49.905Z,15.72
2019-04-10T07:15:46.609Z,20.02
2019-04-10T07:20:48.980Z,12.85
2019-04-10T07:25:51.979Z,14.50
2019-04-10T07:30:56.834Z,14.60
2019-04-10T07:35:57.868Z,13.60
2019-04-10T07:40:59.531Z,15.85
2019-04-10T07:46:01.207Z,13.25
2019-04-10T07:51:02.947Z,16.40
2019-04-10T07:56:09.127Z,15.78
2019-04-10T08:01:08.572Z,15.20
2019-04-10T08:06:11.083Z,14.73
2019-04-10T08:11:13.967Z,13.62
2019-04-10T08:16:16.961Z,15.60
2019-04-10T08:21:19.782Z,12.78
2019-04-10T08:26:22.714Z,14.38
2019-04-10T08:31:25.318Z,13.60
2019-04-10T08:36:28.164Z,16.65
2019-04-10T08:41:30.035Z,12.60
2019-04-10T08:46:31.602Z,12.40
2019-04-10T08:51:33.236Z,14.25
2019-04-10T08:56:35.047Z,11.75
2019-04-10T09:01:37.643Z,14.07
2019-04-10T09:06:39.844Z,13.55
2019-04-10T09:11:43.045Z,12.75
2019-04-10T09:16:44.879Z,13.10
2019-04-10T09:21:46.520Z,12.65
2019-04-10T09:26:48.684Z,13.30
2019-04-10T09:31:50.530Z,13.20
2019-04-10T09:36:52.090Z,11.00
2019-04-10T09:41:54.344Z,11.28
2019-04-10T09:46:56.158Z,11.90
2019-04-10T09:51:58.623Z,11.00
2019-04-10T09:57:01.258Z,11.35
2019-04-10T10:02:03.210Z,12.10
2019-04-10T10:07:05.601Z,11.48
2019-04-10T10:12:07.445Z,11.12
2019-04-10T10:17:09.109Z,11.75
2019-04-10T10:22:10.825Z,11.22
2019-04-10T10:27:13.550Z,8.78
2019-04-10T10:32:15.292Z,9.90
2019-04-10T10:37:16.871Z,12.10
2019-04-10T10:42:19.321Z,10.23
2019-04-10T10:47:22.231Z,11.18
2019-04-10T10:52:24.065Z,9.63
2019-04-10T10:57:26.896Z,10.82
2019-04-10T11:02:29.659Z,9.05
2019-04-10T11:07:31.496Z,10.13
2019-04-10T11:12:34.166Z,9.63
2019-04-10T11:17:36.288Z,9.43
2019-04-10T11:22:39.730Z,9.30
2019-04-10T11:27:42.569Z,8.65
2019-04-10T11:32:44.553Z,8.20
2019-04-10T11:37:49.648Z,9.13
2019-04-10T11:42:51.524Z,8.08
2019-04-10T11:47:53.459Z,9.03
2019-04-10T11:52:56.746Z,8.73
2019-04-10T11:57:59.964Z,7.05
2019-04-10T12:03:01.726Z,7.92
2019-04-10T12:13:08.175Z,8.40
2019-04-10T12:18:10.681Z,7.67
2019-04-10T12:23:12.680Z,6.78
2019-04-10T12:28:14.395Z,8.70
2019-04-10T12:33:17.111Z,9.00
2019-04-10T12:38:19.332Z,7.10
2019-04-10T12:43:21.041Z,8.65
2019-04-10T12:48:23.059Z,8.55
2019-04-10T12:53:24.915Z,11.48
2019-04-10T12:58:26.691Z,12.18
2019-04-10T13:03:29.429Z,10.82
2019-04-10T13:08:51.524Z,10.78
2019-04-10T13:13:35.830Z,11.00
2019-04-10T13:18:38.592Z,9.95
2019-04-10T13:23:41.217Z,8.13
2019-04-10T13:28:43.980Z,6.85
2019-04-10T13:33:45.597Z,16.32
2019-04-10T13:38:48.857Z,8.63
2019-04-10T13:43:52.532Z,11.12
2019-04-10T13:48:55.580Z,9.65
2019-04-10T13:53:58.455Z,15.15
2019-04-10T13:59:00.594Z,14.18
2019-04-10T14:04:02.961Z,11.97
2019-04-10T14:09:26.355Z,13.30
2019-04-10T14:14:16.221Z,16.20
2019-04-10T14:19:17.964Z,16.42
2019-04-10T14:24:20.078Z,16.45
2019-04-10T14:29:24.693Z,15.85
2019-04-10T14:34:28.406Z,16.30
2019-04-10T14:39:31.329Z,12.05
2019-04-10T14:44:33.348Z,14.45
2019-04-10T14:49:35.472Z,14.98
2019-04-10T14:54:37.596Z,15.60
2019-04-10T14:59:40.002Z,19.20
2019-04-10T15:04:41.812Z,20.40
2019-04-10T15:09:45.239Z,18.37
2019-04-10T15:14:47.831Z,21.00
2019-04-10T15:19:51.892Z,22.22
2019-04-10T15:25:06.867Z,39.95
2019-04-10T15:30:08.672Z,46.05
2019-04-10T15:35:10.511Z,56.00
2019-04-10T15:40:19.916Z,107.52
2019-04-10T15:45:16.451Z,111.17
2019-04-10T15:50:18.143Z,89.50
2019-04-10T15:55:20.102Z,59.75
2019-04-10T16:00:23.193Z,50.15
2019-04-10T16:05:25.801Z,45.98
2019-04-10T16:10:30.943Z,41.92
2019-04-10T16:15:34.658Z,42.40
2019-04-10T16:20:36.930Z,41.02
2019-04-10T16:25:40.581Z,39.08
2019-04-10T16:30:43.224Z,41.48
2019-04-10T16:35:46.286Z,40.78
2019-04-10T16:40:48.140Z,31.05
2019-04-10T16:45:50.980Z,36.33
2019-04-10T16:50:53.889Z,31.30
2019-04-10T16:55:56.920Z,35.00
2019-04-10T17:00:58.964Z,23.77
2019-04-10T17:06:01.899Z,35.35
2019-04-10T17:11:05.324Z,18.32
2019-04-10T17:16:07.349Z,23.98
2019-04-10T17:21:09.110Z,14.10
2019-04-10T17:26:12.829Z,14.98
2019-04-10T17:31:16.235Z,18.73
2019-04-10T17:36:18.915Z,13.35
2019-04-10T17:41:21.860Z,14.13
2019-04-10T17:46:24.888Z,14.15
2019-04-10T17:51:28.299Z,12.82
2019-04-10T17:56:30.525Z,12.33
2019-04-10T18:01:33.100Z,13.38
2019-04-10T18:06:35.302Z,13.70
2019-04-10T18:11:37.447Z,13.90
2019-04-10T18:16:40.134Z,14.70
2019-04-10T18:21:44.171Z,16.15
2019-04-10T18:26:45.716Z,12.88
2019-04-10T18:31:47.424Z,12.70
2019-04-10T18:36:50.741Z,13.32
2019-04-10T18:41:52.665Z,11.40
2019-04-10T18:46:54.396Z,11.53
2019-04-10T18:51:56.337Z,13.50
2019-04-10T18:56:58.136Z,10.95
2019-04-10T19:02:18.703Z,12.70
2019-04-10T19:07:21.241Z,10.93
2019-04-10T19:12:23.014Z,9.23
2019-04-10T19:17:24.659Z,10.78
2019-04-10T19:22:26.458Z,9.43
2019-04-10T19:27:29.232Z,10.48
2019-04-10T19:32:33.307Z,10.32
2019-04-10T19:37:36.724Z,9.15
2019-04-10T19:42:39.745Z,9.10
2019-04-10T19:47:42.248Z,8.53
2019-04-10T19:52:44.633Z,6.60
2019-04-10T19:57:47.743Z,9.28
2019-04-10T20:02:49.649Z,11.45
2019-04-10T20:07:51.434Z,9.55
2019-04-10T20:12:53.295Z,7.12
2019-04-10T20:17:55.077Z,8.50
2019-04-10T20:22:56.842Z,8.40
2019-04-10T20:27:58.623Z,8.43
2019-04-10T20:33:00.734Z,9.18
2019-04-10T20:38:03.087Z,8.18
2019-04-10T20:43:04.966Z,8.40
2019-04-10T20:48:06.642Z,9.65
2019-04-10T20:53:09.538Z,8.18
2019-04-10T20:58:11.384Z,7.62
2019-04-10T21:03:13.519Z,8.23
2019-04-10T21:08:15.740Z,6.72
2019-04-10T21:13:17.542Z,8.43
2019-04-10T21:18:19.491Z,9.03
2019-04-10T21:23:22.326Z,7.22
2019-04-10T21:28:23.991Z,6.45
2019-04-10T21:33:28.513Z,7.15
2019-04-10T21:38:30.297Z,7.25
2019-04-10T21:43:31.858Z,6.67
2019-04-10T21:48:33.648Z,8.55
2019-04-10T21:53:35.975Z,7.72
2019-04-10T21:58:38.937Z,6.87
2019-04-10T22:03:41.475Z,7.62
2019-04-10T22:08:49.745Z,6.97
2019-04-10T22:13:52.680Z,6.37
2019-04-10T22:18:54.625Z,6.28
2019-04-10T22:23:56.687Z,7.00
2019-04-10T22:28:58.482Z,7.58
2019-04-10T22:34:00.821Z,6.45
2019-04-10T22:39:04.659Z,6.72
2019-04-10T22:44:08.289Z,6.08
2019-04-10T22:49:10.403Z,7.17
2019-04-10T22:54:13.417Z,6.75
2019-04-10T22:59:16.128Z,5.70
2019-04-10T23:04:17.955Z,6.70
2019-04-10T23:09:20.208Z,7.62
2019-04-10T23:14:22.751Z,5.95
2019-04-10T23:19:25.733Z,4.95
2019-04-10T23:24:27.751Z,5.85
2019-04-10T23:29:30.868Z,5.65
2019-04-10T23:34:32.801Z,5.40
2019-04-10T23:39:34.497Z,6.37
2019-04-10T23:44:37.391Z,6.67
2019-04-10T23:49:39.565Z,6.30
2019-04-10T23:54:41.621Z,6.90
2019-04-10T23:59:43.359Z,4.83
